Time;durP1;ratioP1;P1;durP2;ratioP2;P2;SDS_P1;SDS_P2;PMS_P1;PMS_P2;Temp;Humidity;BMP_temperature;BMP_pressure;BME280_temperature;BME280_humidity;BME280_pressure;Samples;Min_cycle;Max_cycle;Signal;HPM_P1;HPM_P2
2021/08/04 00:00:07;;;;;;;6.70;5.93;;;;;;;;;;5101573;28;20205;-64
2021/08/04 00:02:35;;;;;;;6.83;5.97;;;;;;;;;;5101178;28;20224;-63
2021/08/04 00:05:03;;;;;;;7.00;5.60;;;;;;;;;;5101263;28;20269;-63
2021/08/04 00:07:31;;;;;;;10.37;5.90;;;;;;;;;;5101162;28;20650;-63
2021/08/04 00:09:59;;;;;;;9.23;7.13;;;;;;;;;;5101043;28;20580;-64
2021/08/04 00:12:29;;;;;;;12.27;5.83;;;;;;;;;;5101013;28;20317;-63
2021/08/04 00:14:57;;;;;;;8.50;5.33;;;;;;;;;;5101240;28;20233;-63
2021/08/04 00:17:25;;;;;;;6.77;5.33;;;;;;;;;;5101235;28;20208;-63
2021/08/04 00:19:53;;;;;;;8.80;6.20;;;;;;;;;;5100494;28;20542;-63
2021/08/04 00:22:21;;;;;;;7.87;5.70;;;;;;;;;;5100786;28;20589;-63
2021/08/04 00:24:49;;;;;;;6.83;5.80;;;;;;;;;;5101035;28;20210;-63
2021/08/04 00:27:16;;;;;;;7.23;5.20;;;;;;;;;;5101025;28;20205;-63
2021/08/04 00:29:46;;;;;;;6.53;5.00;;;;;;;;;;5100635;28;20684;-63
2021/08/04 00:32:14;;;;;;;9.40;5.63;;;;;;;;;;5100577;28;20246;-64
2021/08/04 00:34:42;;;;;;;6.23;5.37;;;;;;;;;;5100647;28;20205;-64
2021/08/04 00:37:10;;;;;;;7.07;5.57;;;;;;;;;;5100745;28;20210;-63
2021/08/04 00:39:38;;;;;;;7.23;5.40;;;;;;;;;;5100617;28;20589;-64
2021/08/04 00:42:06;;;;;;;9.63;5.77;;;;;;;;;;5100681;28;20245;-63
2021/08/04 00:44:34;;;;;;;8.00;6.03;;;;;;;;;;5100487;28;20271;-64
2021/08/04 00:47:05;;;;;;;10.87;5.80;;;;;;;;;;5100612;28;20206;-63
2021/08/04 00:49:33;;;;;;;6.67;6.03;;;;;;;;;;5100244;28;20237;-64
2021/08/04 00:52:01;;;;;;;8.63;6.73;;;;;;;;;;5100473;28;20225;-64
2021/08/04 00:54:29;;;;;;;8.83;6.40;;;;;;;;;;5100381;28;20205;-64
2021/08/04 00:56:57;;;;;;;8.70;6.63;;;;;;;;;;5100299;28;20209;-64
2021/08/04 00:59:24;;;;;;;10.67;6.73;;;;;;;;;;5100251;28;20694;-63
2021/08/04 01:01:57;;;;;;;7.53;6.53;;;;;;;;;;5099857;28;20686;-64
2021/08/04 01:04:30;;;;;;;9.27;7.50;;;;;;;;;;5100150;28;20205;-63
2021/08/04 01:07:01;;;;;;;9.40;6.70;;;;;;;;;;5100244;28;20216;-63
2021/08/04 01:09:32;;;;;;;8.83;6.20;;;;;;;;;;5099998;28;20237;-63
2021/08/04 01:12:01;;;;;;;9.93;7.93;;;;;;;;;;5099682;28;20213;-63
2021/08/04 01:14:31;;;;;;;8.70;6.90;;;;;;;;;;5099968;28;20320;-63
2021/08/04 01:17:00;;;;;;;9.53;6.50;;;;;;;;;;5099743;28;20664;-63
2021/08/04 01:19:38;;;;;;;8.40;6.83;;;;;;;;;;5099473;28;20201;-64
2021/08/04 01:22:13;;;;;;;10.93;6.30;;;;;;;;;;5099859;28;20236;-64
2021/08/04 01:24:42;;;;;;;8.97;6.97;;;;;;;;;;5100131;28;20219;-63
2021/08/04 01:27:14;;;;;;;8.73;6.40;;;;;;;;;;5099759;28;20630;-64
2021/08/04 01:29:43;;;;;;;9.27;5.97;;;;;;;;;;5099837;28;20230;-64
2021/08/04 01:32:11;;;;;;;8.37;6.80;;;;;;;;;;5099501;28;20323;-64
2021/08/04 01:34:40;;;;;;;10.60;5.83;;;;;;;;;;5099499;28;20205;-64
2021/08/04 01:37:08;;;;;;;8.50;6.03;;;;;;;;;;5099812;28;20216;-64
2021/08/04 01:39:36;;;;;;;11.63;5.87;;;;;;;;;;5099636;28;20208;-65
2021/08/04 01:42:05;;;;;;;7.97;5.53;;;;;;;;;;5099306;28;20301;-65
2021/08/04 01:44:35;;;;;;;5.33;4.70;;;;;;;;;;5099636;28;20209;-64
2021/08/04 01:47:03;;;;;;;6.43;5.27;;;;;;;;;;5099466;28;20235;-63
2021/08/04 01:49:32;;;;;;;5.97;5.30;;;;;;;;;;5098930;28;20587;-65
2021/08/04 01:52:00;;;;;;;5.70;4.87;;;;;;;;;;5099139;28;20230;-63
2021/08/04 01:54:28;;;;;;;6.27;4.70;;;;;;;;;;5099138;28;20210;-64
2021/08/04 01:56:56;;;;;;;5.27;4.77;;;;;;;;;;5099387;28;20212;-65
2021/08/04 01:59:24;;;;;;;7.70;4.57;;;;;;;;;;5098987;28;20231;-64
2021/08/04 02:01:54;;;;;;;6.53;4.67;;;;;;;;;;5099034;28;20225;-65
2021/08/04 02:04:23;;;;;;;7.67;5.33;;;;;;;;;;5098810;28;20285;-64
2021/08/04 02:06:53;;;;;;;7.73;4.13;;;;;;;;;;5099050;28;20573;-65
2021/08/04 02:09:25;;;;;;;5.07;4.57;;;;;;;;;;5098914;28;20646;-64
2021/08/04 02:11:56;;;;;;;6.60;5.63;;;;;;;;;;5098794;28;20217;-64
2021/08/04 02:14:26;;;;;;;7.07;5.60;;;;;;;;;;5098134;28;20583;-64
2021/08/04 02:17:00;;;;;;;6.80;5.27;;;;;;;;;;5098695;28;20657;-65
2021/08/04 02:19:30;;;;;;;6.00;5.10;;;;;;;;;;5098558;28;20711;-64
2021/08/04 02:22:02;;;;;;;5.40;4.87;;;;;;;;;;5098703;28;20225;-64
2021/08/04 02:24:31;;;;;;;8.10;5.13;;;;;;;;;;5098518;28;20205;-65
2021/08/04 02:27:00;;;;;;;6.80;5.03;;;;;;;;;;5098508;28;20206;-65
2021/08/04 02:29:30;;;;;;;6.07;5.07;;;;;;;;;;5098582;28;20288;-64
2021/08/04 02:32:00;;;;;;;5.53;4.83;;;;;;;;;;5084498;28;20241;-64
2021/08/04 02:34:29;;;;;;;6.60;4.57;;;;;;;;;;5097922;28;20296;-63
2021/08/04 02:36:57;;;;;;;7.83;4.13;;;;;;;;;;5098482;28;20206;-63
2021/08/04 02:39:25;;;;;;;5.90;4.30;;;;;;;;;;5098230;28;20573;-63
2021/08/04 02:41:53;;;;;;;4.70;3.93;;;;;;;;;;5097820;28;20237;-65
2021/08/04 02:44:21;;;;;;;6.10;4.80;;;;;;;;;;5097063;28;20673;-66
2021/08/04 02:46:50;;;;;;;5.90;4.33;;;;;;;;;;5097462;28;20212;-63
2021/08/04 02:49:19;;;;;;;5.07;4.57;;;;;;;;;;5097040;28;20215;-65
2021/08/04 02:51:48;;;;;;;5.83;4.27;;;;;;;;;;5097117;28;20233;-63
2021/08/04 02:54:18;;;;;;;7.57;4.60;;;;;;;;;;5096939;28;20209;-65
2021/08/04 02:56:46;;;;;;;8.00;4.50;;;;;;;;;;5097216;28;20266;-66
2021/08/04 02:59:14;;;;;;;5.07;4.57;;;;;;;;;;5097128;28;20633;-64
2021/08/04 03:01:42;;;;;;;5.03;4.23;;;;;;;;;;5096863;28;20586;-63
2021/08/04 03:04:10;;;;;;;6.97;5.13;;;;;;;;;;5096870;28;20235;-64
2021/08/04 03:06:39;;;;;;;4.30;3.77;;;;;;;;;;5097312;28;20237;-64
2021/08/04 03:09:07;;;;;;;4.87;4.30;;;;;;;;;;5097187;28;20206;-64
2021/08/04 03:11:35;;;;;;;4.23;3.70;;;;;;;;;;5096938;28;20261;-64
2021/08/04 03:14:03;;;;;;;6.17;4.60;;;;;;;;;;5096931;28;20210;-63
2021/08/04 03:16:31;;;;;;;5.20;4.67;;;;;;;;;;5096585;28;20620;-64
2021/08/04 03:18:59;;;;;;;5.17;4.67;;;;;;;;;;5096907;28;20193;-64
2021/08/04 03:21:27;;;;;;;7.60;5.20;;;;;;;;;;5096592;28;20362;-64
2021/08/04 03:23:57;;;;;;;7.00;6.00;;;;;;;;;;5096931;28;20236;-64
2021/08/04 03:26:25;;;;;;;7.20;6.23;;;;;;;;;;5095398;28;20673;-64
2021/08/04 03:28:53;;;;;;;11.00;6.57;;;;;;;;;;5096927;28;20212;-63
2021/08/04 03:31:21;;;;;;;15.07;6.43;;;;;;;;;;5096580;28;20230;-63
2021/08/04 03:33:48;;;;;;;6.43;5.73;;;;;;;;;;5096872;28;20205;-64
2021/08/04 03:36:16;;;;;;;10.63;6.50;;;;;;;;;;5096380;28;20216;-63
2021/08/04 03:38:44;;;;;;;7.50;6.10;;;;;;;;;;5096785;28;20205;-64
2021/08/04 03:41:14;;;;;;;7.87;6.07;;;;;;;;;;5051473;28;1268687;-63
2021/08/04 03:43:42;;;;;;;8.53;6.10;;;;;;;;;;5097924;28;20212;-63
2021/08/04 03:46:10;;;;;;;9.03;6.23;;;;;;;;;;5097662;28;20233;-64
2021/08/04 03:48:38;;;;;;;8.60;6.27;;;;;;;;;;5097525;28;20680;-66
2021/08/04 03:51:06;;;;;;;8.97;6.07;;;;;;;;;;5096870;28;20231;-65
2021/08/04 03:53:34;;;;;;;6.97;5.83;;;;;;;;;;5097329;28;20216;-63
2021/08/04 03:56:02;;;;;;;9.53;6.53;;;;;;;;;;5097028;28;20545;-63
2021/08/04 03:58:31;;;;;;;6.37;5.73;;;;;;;;;;5097427;28;20679;-63
2021/08/04 04:00:59;;;;;;;10.17;5.80;;;;;;;;;;5097271;28;20265;-63
2021/08/04 04:03:27;;;;;;;7.77;6.27;;;;;;;;;;5097358;28;20235;-64
2021/08/04 04:05:56;;;;;;;7.83;6.63;;;;;;;;;;5097266;28;20315;-63
2021/08/04 04:08:24;;;;;;;9.90;6.33;;;;;;;;;;5097407;28;20205;-63
2021/08/04 04:10:52;;;;;;;7.37;6.10;;;;;;;;;;5096970;28;20630;-63
2021/08/04 04:13:20;;;;;;;6.60;5.57;;;;;;;;;;5096871;28;20734;-64
2021/08/04 04:15:49;;;;;;;10.27;6.33;;;;;;;;;;5097211;28;20265;-63
2021/08/04 04:18:17;;;;;;;9.33;6.60;;;;;;;;;;5097021;28;20269;-64
2021/08/04 04:20:45;;;;;;;6.57;5.87;;;;;;;;;;5096995;28;20212;-64
2021/08/04 04:23:13;;;;;;;7.70;5.83;;;;;;;;;;5097210;28;20263;-63
2021/08/04 04:25:41;;;;;;;7.13;5.87;;;;;;;;;;5096966;28;20205;-63
2021/08/04 04:28:09;;;;;;;9.00;6.70;;;;;;;;;;5096636;28;20209;-63
2021/08/04 04:30:37;;;;;;;9.50;6.17;;;;;;;;;;5096786;28;20212;-63
2021/08/04 04:33:06;;;;;;;7.33;6.13;;;;;;;;;;5096731;28;20229;-64
2021/08/04 04:35:34;;;;;;;6.53;5.77;;;;;;;;;;5096679;28;20206;-63
2021/08/04 04:38:02;;;;;;;9.73;6.57;;;;;;;;;;5098905;28;20205;-63
2021/08/04 04:40:30;;;;;;;9.13;5.60;;;;;;;;;;5100530;28;20209;-65
2021/08/04 04:42:58;;;;;;;7.30;5.87;;;;;;;;;;5100017;28;20240;-65
2021/08/04 04:45:26;;;;;;;9.47;6.40;;;;;;;;;;5100325;28;20223;-65
2021/08/04 04:47:54;;;;;;;7.87;6.40;;;;;;;;;;5100173;28;20665;-65
2021/08/04 04:50:23;;;;;;;10.03;6.80;;;;;;;;;;5100133;28;20215;-64
2021/08/04 04:52:51;;;;;;;6.57;5.70;;;;;;;;;;5099945;28;20251;-65
2021/08/04 04:55:19;;;;;;;8.17;6.30;;;;;;;;;;5100515;28;20209;-65
2021/08/04 04:57:47;;;;;;;11.43;7.17;;;;;;;;;;5100446;28;20209;-64
2021/08/04 05:00:15;;;;;;;7.93;6.40;;;;;;;;;;5100401;28;20265;-64
2021/08/04 05:02:43;;;;;;;6.83;5.57;;;;;;;;;;5087041;28;20221;-64
2021/08/04 05:05:16;;;;;;;9.23;6.00;;;;;;;;;;5099649;28;20655;-65
2021/08/04 05:07:45;;;;;;;8.97;6.63;;;;;;;;;;5099925;28;20296;-64
2021/08/04 05:10:13;;;;;;;7.80;6.80;;;;;;;;;;5100054;28;20269;-64
2021/08/04 05:12:41;;;;;;;8.43;6.00;;;;;;;;;;5099714;28;20257;-64
2021/08/04 05:15:10;;;;;;;7.27;5.30;;;;;;;;;;5099959;28;20206;-65
2021/08/04 05:17:38;;;;;;;9.73;6.00;;;;;;;;;;5099927;28;20202;-64
2021/08/04 05:20:07;;;;;;;6.93;5.87;;;;;;;;;;5099241;28;20218;-65
2021/08/04 05:22:35;;;;;;;8.83;6.23;;;;;;;;;;5099745;28;20249;-64
2021/08/04 05:25:05;;;;;;;7.80;5.80;;;;;;;;;;5099662;28;20205;-65
2021/08/04 05:27:32;;;;;;;10.77;6.57;;;;;;;;;;5099574;28;20565;-64
2021/08/04 05:30:00;;;;;;;7.53;6.23;;;;;;;;;;5099422;28;20770;-65
2021/08/04 05:32:28;;;;;;;8.20;6.13;;;;;;;;;;5099489;28;20324;-65
2021/08/04 05:34:56;;;;;;;7.67;6.00;;;;;;;;;;5099184;28;20209;-65
2021/08/04 05:37:24;;;;;;;8.03;6.10;;;;;;;;;;5099440;28;20571;-65
2021/08/04 05:39:52;;;;;;;9.00;6.10;;;;;;;;;;5099481;28;20212;-64
2021/08/04 05:42:21;;;;;;;9.00;6.80;;;;;;;;;;5099109;28;20248;-64
2021/08/04 05:44:49;;;;;;;8.33;6.20;;;;;;;;;;5099149;28;20694;-63
2021/08/04 05:47:17;;;;;;;8.63;6.73;;;;;;;;;;5099049;28;20212;-64
2021/08/04 05:49:48;;;;;;;8.53;6.83;;;;;;;;;;5097858;28;20228;-64
2021/08/04 05:52:16;;;;;;;8.20;6.90;;;;;;;;;;5098884;28;20236;-63
2021/08/04 05:54:44;;;;;;;12.83;7.40;;;;;;;;;;5098999;28;20292;-63
2021/08/04 05:57:11;;;;;;;12.70;7.03;;;;;;;;;;5098881;28;20597;-63
2021/08/04 05:59:41;;;;;;;9.33;6.87;;;;;;;;;;5099322;28;20210;-63
2021/08/04 06:02:09;;;;;;;8.80;7.03;;;;;;;;;;5099337;28;20225;-63
2021/08/04 06:04:37;;;;;;;9.73;6.80;;;;;;;;;;5098659;28;20201;-63
2021/08/04 06:07:05;;;;;;;14.47;8.10;;;;;;;;;;5098879;28;20292;-65
2021/08/04 06:09:33;;;;;;;10.33;7.13;;;;;;;;;;5098832;28;20575;-63
2021/08/04 06:12:01;;;;;;;13.03;7.80;;;;;;;;;;5099288;28;20304;-63
2021/08/04 06:14:29;;;;;;;9.07;6.17;;;;;;;;;;5098603;28;20547;-64
2021/08/04 06:16:58;;;;;;;10.57;6.53;;;;;;;;;;5098598;28;20213;-63
2021/08/04 06:19:26;;;;;;;10.77;6.80;;;;;;;;;;5098519;28;20202;-63
2021/08/04 06:21:54;;;;;;;10.90;7.30;;;;;;;;;;5098343;28;20228;-63
2021/08/04 06:24:22;;;;;;;10.40;6.90;;;;;;;;;;5098733;28;20205;-63
2021/08/04 06:26:50;;;;;;;10.77;7.20;;;;;;;;;;5098710;28;20209;-63
2021/08/04 06:29:18;;;;;;;9.60;6.63;;;;;;;;;;5098482;28;20216;-65
2021/08/04 06:31:46;;;;;;;11.87;7.30;;;;;;;;;;5098007;28;20225;-66
2021/08/04 06:34:15;;;;;;;9.27;7.13;;;;;;;;;;5098013;28;20259;-65
2021/08/04 06:36:43;;;;;;;9.80;6.77;;;;;;;;;;5099903;28;20296;-63
2021/08/04 06:39:11;;;;;;;9.47;6.53;;;;;;;;;;5098511;28;20212;-64
2021/08/04 06:41:39;;;;;;;8.30;6.70;;;;;;;;;;5098140;28;20602;-63
2021/08/04 06:44:07;;;;;;;10.63;7.40;;;;;;;;;;5098234;28;20569;-63
2021/08/04 06:46:36;;;;;;;11.17;6.97;;;;;;;;;;5098212;28;20201;-63
2021/08/04 06:49:05;;;;;;;8.03;6.50;;;;;;;;;;5097583;28;20608;-65
2021/08/04 06:51:35;;;;;;;10.97;7.23;;;;;;;;;;5097845;28;20239;-64
2021/08/04 06:54:04;;;;;;;11.47;7.03;;;;;;;;;;5098216;28;20221;-66
2021/08/04 06:56:32;;;;;;;8.37;6.40;;;;;;;;;;5098322;28;20281;-66
2021/08/04 06:59:00;;;;;;;7.93;6.17;;;;;;;;;;5098065;28;20244;-66
2021/08/04 07:01:28;;;;;;;7.87;5.67;;;;;;;;;;5098440;28;20221;-66
2021/08/04 07:03:56;;;;;;;8.60;5.93;;;;;;;;;;5099564;28;20206;-66
2021/08/04 07:06:24;;;;;;;6.60;5.43;;;;;;;;;;5097957;28;20206;-66
2021/08/04 07:08:53;;;;;;;7.53;5.30;;;;;;;;;;5097820;28;20274;-66
2021/08/04 07:11:22;;;;;;;9.43;5.77;;;;;;;;;;5098006;28;20221;-66
2021/08/04 07:13:50;;;;;;;7.40;5.80;;;;;;;;;;5097442;28;20633;-66
2021/08/04 07:16:18;;;;;;;8.20;5.93;;;;;;;;;;5097816;28;20209;-65
2021/08/04 07:18:46;;;;;;;9.93;5.80;;;;;;;;;;5097970;28;20198;-65
2021/08/04 07:21:14;;;;;;;6.47;5.47;;;;;;;;;;5097633;28;20212;-66
2021/08/04 07:23:46;;;;;;;8.23;5.77;;;;;;;;;;5097925;28;20204;-66
2021/08/04 07:26:15;;;;;;;8.17;6.00;;;;;;;;;;5098609;28;20288;-66
2021/08/04 07:28:44;;;;;;;9.10;5.77;;;;;;;;;;5099450;28;20220;-66
2021/08/04 07:31:11;;;;;;;10.20;6.53;;;;;;;;;;5098561;28;20206;-66
2021/08/04 07:33:40;;;;;;;7.67;6.00;;;;;;;;;;5118120;28;20708;-66
2021/08/04 07:36:08;;;;;;;9.87;6.27;;;;;;;;;;5117729;28;20205;-66
2021/08/04 07:38:36;;;;;;;8.43;6.67;;;;;;;;;;5118199;28;20268;-65
2021/08/04 07:41:04;;;;;;;8.10;5.20;;;;;;;;;;5117951;28;20205;-67
2021/08/04 07:43:34;;;;;;;7.27;5.53;;;;;;;;;;5118285;28;20205;-66
2021/08/04 07:46:02;;;;;;;6.57;5.87;;;;;;;;;;5117786;28;20209;-65
2021/08/04 07:48:30;;;;;;;6.63;5.30;;;;;;;;;;5118016;28;20205;-66
2021/08/04 07:51:00;;;;;;;8.67;5.63;;;;;;;;;;5117512;28;20664;-66
2021/08/04 07:53:28;;;;;;;7.27;5.87;;;;;;;;;;5120153;28;20235;-66
2021/08/04 07:55:56;;;;;;;8.53;6.07;;;;;;;;;;5118035;28;20215;-66
2021/08/04 07:58:24;;;;;;;6.50;5.57;;;;;;;;;;5118147;28;20219;-66
2021/08/04 08:00:54;;;;;;;8.77;5.70;;;;;;;;;;5117653;28;20211;-66
2021/08/04 08:03:22;;;;;;;6.67;5.10;;;;;;;;;;5117626;28;20220;-65
2021/08/04 08:05:50;;;;;;;7.77;5.60;;;;;;;;;;5117466;28;20208;-66
2021/08/04 08:08:18;;;;;;;7.13;5.87;;;;;;;;;;5117418;28;20686;-66
2021/08/04 08:10:49;;;;;;;6.87;6.10;;;;;;;;;;5117674;28;20237;-66
2021/08/04 08:13:17;;;;;;;7.57;5.83;;;;;;;;;;5104257;28;20775;-65
2021/08/04 08:15:45;;;;;;;6.87;5.57;;;;;;;;;;5101440;28;20205;-65
2021/08/04 08:18:15;;;;;;;11.90;6.30;;;;;;;;;;5103164;28;20205;-65
2021/08/04 08:20:43;;;;;;;8.50;6.90;;;;;;;;;;5101138;28;20205;-66
2021/08/04 08:23:12;;;;;;;11.83;7.43;;;;;;;;;;5100733;28;20305;-65
2021/08/04 08:25:40;;;;;;;8.53;6.37;;;;;;;;;;5101205;28;20664;-66
2021/08/04 08:28:08;;;;;;;10.73;6.50;;;;;;;;;;5100854;28;20205;-65
2021/08/04 08:30:37;;;;;;;13.53;6.93;;;;;;;;;;5100968;28;20209;-65
2021/08/04 08:33:05;;;;;;;9.57;6.30;;;;;;;;;;5100469;28;20237;-65
2021/08/04 08:35:35;;;;;;;9.23;6.83;;;;;;;;;;5100139;28;20572;-65
2021/08/04 08:38:03;;;;;;;8.43;7.00;;;;;;;;;;5100646;28;20205;-66
2021/08/04 08:40:31;;;;;;;7.40;6.13;;;;;;;;;;5100622;28;20206;-66
2021/08/04 08:43:00;;;;;;;8.77;7.10;;;;;;;;;;5100138;28;20301;-66
2021/08/04 08:45:28;;;;;;;8.67;6.73;;;;;;;;;;5100744;28;20208;-66
2021/08/04 08:47:57;;;;;;;9.20;6.80;;;;;;;;;;5100200;28;20567;-65
2021/08/04 08:50:26;;;;;;;12.60;7.70;;;;;;;;;;5100259;28;20258;-66
2021/08/04 08:52:57;;;;;;;7.83;6.37;;;;;;;;;;5100167;28;20226;-65
2021/08/04 08:55:25;;;;;;;9.10;6.87;;;;;;;;;;5100664;28;20209;-65
2021/08/04 08:57:54;;;;;;;8.50;6.67;;;;;;;;;;5100293;28;20659;-66
2021/08/04 09:00:22;;;;;;;7.63;6.70;;;;;;;;;;5100211;28;20213;-65
2021/08/04 09:02:50;;;;;;;7.87;6.47;;;;;;;;;;5100335;28;20316;-66
2021/08/04 09:05:18;;;;;;;9.77;7.43;;;;;;;;;;5100166;28;20202;-65
2021/08/04 09:07:47;;;;;;;9.70;6.93;;;;;;;;;;5100415;28;20211;-66
2021/08/04 09:10:27;;;;;;;10.30;8.17;;;;;;;;;;5099903;28;20224;-66
2021/08/04 09:12:56;;;;;;;8.63;7.23;;;;;;;;;;5100084;28;20316;-66
2021/08/04 09:15:29;;;;;;;11.57;8.57;;;;;;;;;;5099773;28;20332;-66
2021/08/04 09:17:58;;;;;;;12.17;9.17;;;;;;;;;;5100231;28;20206;-65
2021/08/04 09:20:27;;;;;;;13.83;8.73;;;;;;;;;;5099889;28;20211;-66
2021/08/04 09:23:00;;;;;;;14.03;8.70;;;;;;;;;;5099929;28;20689;-65
2021/08/04 09:25:29;;;;;;;11.53;8.87;;;;;;;;;;5100018;28;20202;-66
2021/08/04 09:27:58;;;;;;;12.80;8.73;;;;;;;;;;5099945;28;20287;-65
2021/08/04 09:30:28;;;;;;;11.43;7.37;;;;;;;;;;5097075;28;20209;-66
2021/08/04 09:33:11;;;;;;;11.47;7.47;;;;;;;;;;5099488;28;20235;-65
2021/08/04 09:35:45;;;;;;;10.90;8.07;;;;;;;;;;5099373;28;20205;-65
2021/08/04 09:38:14;;;;;;;11.10;7.87;;;;;;;;;;5099520;28;20209;-66
2021/08/04 09:40:48;;;;;;;11.40;7.87;;;;;;;;;;5099648;28;20198;-66
2021/08/04 09:43:23;;;;;;;11.30;8.03;;;;;;;;;;5098906;28;20240;-65
2021/08/04 09:45:52;;;;;;;9.80;7.67;;;;;;;;;;5099153;28;20197;-65
2021/08/04 09:48:24;;;;;;;10.40;7.73;;;;;;;;;;5099144;28;20210;-65
2021/08/04 09:50:53;;;;;;;9.47;6.93;;;;;;;;;;5094956;28;20201;-65
2021/08/04 09:53:23;;;;;;;9.80;7.20;;;;;;;;;;5099133;28;20304;-66
2021/08/04 09:56:18;;;;;;;11.07;7.87;;;;;;;;;;5098760;28;20204;-66
2021/08/04 09:58:48;;;;;;;11.13;7.07;;;;;;;;;;5062962;28;20212;-66
2021/08/04 10:01:17;;;;;;;10.00;7.63;;;;;;;;;;5099078;28;20215;-66
2021/08/04 10:03:59;;;;;;;10.87;7.87;;;;;;;;;;5098919;28;20254;-65
2021/08/04 10:06:27;;;;;;;10.57;8.07;;;;;;;;;;5098512;28;20571;-65
2021/08/04 10:08:57;;;;;;;11.80;7.80;;;;;;;;;;5098602;28;20213;-66
2021/08/04 10:11:25;;;;;;;10.33;7.00;;;;;;;;;;5099038;28;20225;-66
2021/08/04 10:13:56;;;;;;;9.63;6.37;;;;;;;;;;5098337;28;20247;-66
2021/08/04 10:16:25;;;;;;;7.33;5.80;;;;;;;;;;5098789;28;20220;-66
2021/08/04 10:18:54;;;;;;;7.97;5.90;;;;;;;;;;5098424;28;20201;-66
2021/08/04 10:21:22;;;;;;;6.33;5.10;;;;;;;;;;5098501;28;20236;-65
2021/08/04 10:23:51;;;;;;;7.23;5.57;;;;;;;;;;5098619;28;20209;-64
2021/08/04 10:26:19;;;;;;;8.33;5.93;;;;;;;;;;5098658;28;20202;-65
2021/08/04 10:28:51;;;;;;;10.13;6.67;;;;;;;;;;5098497;28;20208;-65
2021/08/04 10:31:21;;;;;;;8.17;6.27;;;;;;;;;;5098109;28;20225;-66
2021/08/04 10:33:49;;;;;;;8.90;6.07;;;;;;;;;;5098095;28;20213;-65
2021/08/04 10:36:18;;;;;;;6.70;5.40;;;;;;;;;;5097545;28;20206;-65
2021/08/04 10:38:47;;;;;;;8.10;5.20;;;;;;;;;;5098280;28;20211;-65
2021/08/04 10:41:16;;;;;;;6.33;4.53;;;;;;;;;;5098160;28;20206;-66
2021/08/04 10:43:45;;;;;;;8.10;5.37;;;;;;;;;;5098356;28;20209;-65
2021/08/04 10:46:32;;;;;;;7.40;5.13;;;;;;;;;;5097843;28;20220;-65
2021/08/04 10:49:13;;;;;;;6.83;5.53;;;;;;;;;;5097960;28;20284;-64
2021/08/04 10:51:43;;;;;;;8.07;6.03;;;;;;;;;;5098111;28;20308;-66
2021/08/04 10:54:15;;;;;;;8.00;6.40;;;;;;;;;;5097976;28;20206;-66
2021/08/04 10:57:02;;;;;;;9.07;6.37;;;;;;;;;;5098191;28;20206;-65
2021/08/04 10:59:30;;;;;;;7.23;5.60;;;;;;;;;;5098136;28;20285;-65
2021/08/04 11:02:13;;;;;;;9.20;6.30;;;;;;;;;;5097623;28;20275;-65
2021/08/04 11:04:55;;;;;;;8.27;5.60;;;;;;;;;;5097455;28;20236;-66
2021/08/04 11:07:24;;;;;;;8.63;6.13;;;;;;;;;;5098142;28;20209;-66
2021/08/04 11:09:56;;;;;;;11.90;6.23;;;;;;;;;;5098021;28;20213;-66
2021/08/04 11:12:41;;;;;;;7.50;4.93;;;;;;;;;;5097676;28;20260;-65
2021/08/04 11:15:19;;;;;;;5.17;3.93;;;;;;;;;;5097571;28;20312;-65
2021/08/04 11:17:58;;;;;;;5.20;4.53;;;;;;;;;;5097761;28;20209;-65
2021/08/04 11:20:27;;;;;;;5.37;4.37;;;;;;;;;;5097866;28;20197;-65
2021/08/04 11:22:55;;;;;;;6.23;4.77;;;;;;;;;;5097929;28;20225;-65
2021/08/04 11:25:41;;;;;;;6.67;4.40;;;;;;;;;;5097529;28;20206;-65
2021/08/04 11:28:19;;;;;;;5.90;4.93;;;;;;;;;;5097299;28;20296;-65
2021/08/04 11:30:49;;;;;;;6.43;4.33;;;;;;;;;;5097655;28;20201;-65
2021/08/04 11:33:30;;;;;;;5.40;4.60;;;;;;;;;;5097281;28;20229;-65
2021/08/04 11:36:19;;;;;;;5.67;4.47;;;;;;;;;;5097237;28;20221;-65
2021/08/04 11:38:50;;;;;;;5.13;3.53;;;;;;;;;;5097268;28;20572;-65
2021/08/04 11:41:20;;;;;;;6.13;4.30;;;;;;;;;;5097108;28;20209;-65
2021/08/04 11:43:48;;;;;;;4.67;3.70;;;;;;;;;;5097275;28;20211;-65
2021/08/04 11:46:29;;;;;;;4.07;3.50;;;;;;;;;;5097278;28;20205;-65
2021/08/04 11:48:57;;;;;;;6.17;4.40;;;;;;;;;;5100933;28;20207;-65
2021/08/04 11:51:32;;;;;;;4.30;3.57;;;;;;;;;;5101490;28;20235;-63
2021/08/04 11:54:01;;;;;;;6.23;3.90;;;;;;;;;;5100779;28;20204;-64
2021/08/04 11:56:29;;;;;;;3.87;3.47;;;;;;;;;;5101103;28;20596;-64
2021/08/04 11:59:02;;;;;;;5.20;4.30;;;;;;;;;;5100958;28;20559;-65
2021/08/04 12:01:30;;;;;;;7.00;3.63;;;;;;;;;;5101290;28;20221;-65
2021/08/04 12:04:11;;;;;;;4.60;3.90;;;;;;;;;;5100708;28;20563;-65
2021/08/04 12:06:40;;;;;;;5.23;3.80;;;;;;;;;;5101131;28;20680;-65
2021/08/04 12:09:32;;;;;;;4.23;3.83;;;;;;;;;;5100944;28;20216;-65
2021/08/04 12:12:01;;;;;;;4.63;4.13;;;;;;;;;;5085469;28;20228;-63
2021/08/04 12:14:33;;;;;;;6.97;4.10;;;;;;;;;;5100196;28;20206;-63
2021/08/04 12:17:21;;;;;;;5.67;3.80;;;;;;;;;;5101134;28;20202;-66
2021/08/04 12:19:49;;;;;;;6.57;4.13;;;;;;;;;;5100701;28;20208;-65
2021/08/04 12:22:23;;;;;;;6.53;4.63;;;;;;;;;;5100915;28;20243;-65
2021/08/04 12:24:52;;;;;;;8.73;4.20;;;;;;;;;;5100855;28;20243;-66
2021/08/04 12:27:39;;;;;;;8.90;5.20;;;;;;;;;;5100702;28;20212;-65
2021/08/04 12:30:13;;;;;;;8.00;4.60;;;;;;;;;;5100655;28;20545;-66
2021/08/04 12:32:53;;;;;;;5.03;4.30;;;;;;;;;;5100498;28;20229;-65
2021/08/04 12:35:25;;;;;;;4.77;4.37;;;;;;;;;;5100465;28;20279;-65
2021/08/04 12:37:54;;;;;;;5.10;4.33;;;;;;;;;;5100562;28;20205;-66
2021/08/04 12:40:23;;;;;;;5.63;4.10;;;;;;;;;;5100775;28;20209;-66
2021/08/04 12:42:55;;;;;;;4.37;3.67;;;;;;;;;;5100152;28;20252;-65
2021/08/04 12:45:25;;;;;;;5.53;4.30;;;;;;;;;;5100276;28;20208;-65
2021/08/04 12:47:55;;;;;;;7.43;4.57;;;;;;;;;;5100226;28;20300;-65
2021/08/04 12:50:24;;;;;;;4.63;3.97;;;;;;;;;;5099999;28;20209;-66
2021/08/04 12:52:52;;;;;;;5.43;4.30;;;;;;;;;;5100357;28;20231;-65
2021/08/04 12:55:20;;;;;;;5.57;4.97;;;;;;;;;;5099988;28;20571;-65
2021/08/04 12:58:02;;;;;;;6.90;5.60;;;;;;;;;;5099669;28;20211;-66
2021/08/04 13:00:31;;;;;;;9.30;5.80;;;;;;;;;;5100237;28;20210;-66
2021/08/04 13:02:59;;;;;;;8.53;6.00;;;;;;;;;;5100254;28;20236;-65
2021/08/04 13:05:27;;;;;;;5.87;5.27;;;;;;;;;;5099953;28;20237;-65
2021/08/04 13:07:55;;;;;;;8.03;5.23;;;;;;;;;;5099994;28;20202;-65
2021/08/04 13:10:40;;;;;;;7.50;5.57;;;;;;;;;;5099897;28;20293;-65
2021/08/04 13:13:09;;;;;;;8.37;5.80;;;;;;;;;;5099794;28;20225;-65
2021/08/04 13:15:47;;;;;;;10.00;6.13;;;;;;;;;;5099525;28;20535;-65
2021/08/04 13:18:15;;;;;;;7.80;6.13;;;;;;;;;;5099785;28;20212;-65
2021/08/04 13:20:43;;;;;;;7.40;5.43;;;;;;;;;;5099574;28;20227;-65
2021/08/04 13:23:12;;;;;;;7.93;6.30;;;;;;;;;;5099775;28;20241;-65
2021/08/04 13:25:56;;;;;;;7.50;6.10;;;;;;;;;;5099764;28;20211;-65
2021/08/04 13:28:37;;;;;;;8.50;6.47;;;;;;;;;;5099562;28;20653;-65
2021/08/04 13:31:08;;;;;;;6.57;5.70;;;;;;;;;;5099547;28;20211;-65
2021/08/04 13:33:38;;;;;;;7.70;6.20;;;;;;;;;;5099366;28;20202;-65
2021/08/04 13:36:06;;;;;;;7.83;5.67;;;;;;;;;;5099504;28;20233;-65
2021/08/04 13:38:35;;;;;;;7.70;5.00;;;;;;;;;;5099475;28;20264;-66
2021/08/04 13:41:03;;;;;;;8.03;5.30;;;;;;;;;;5099276;28;20208;-66
2021/08/04 13:43:32;;;;;;;7.13;5.00;;;;;;;;;;5099706;28;20205;-65
2021/08/04 13:46:04;;;;;;;7.00;5.63;;;;;;;;;;5098944;28;20602;-65
2021/08/04 13:48:33;;;;;;;5.57;4.90;;;;;;;;;;5099144;28;20206;-65
2021/08/04 13:51:02;;;;;;;6.37;5.00;;;;;;;;;;5099258;28;20239;-65
2021/08/04 13:53:30;;;;;;;6.23;5.07;;;;;;;;;;5099310;28;20657;-65
2021/08/04 13:55:58;;;;;;;7.10;5.57;;;;;;;;;;5099058;28;20684;-65
2021/08/04 13:58:26;;;;;;;6.23;5.10;;;;;;;;;;5099261;28;20216;-65
2021/08/04 14:00:56;;;;;;;5.47;4.10;;;;;;;;;;5098905;28;20208;-65
2021/08/04 14:03:24;;;;;;;4.47;4.07;;;;;;;;;;5098928;28;20274;-65
2021/08/04 14:05:52;;;;;;;4.87;3.90;;;;;;;;;;5098432;28;20214;-65
2021/08/04 14:08:20;;;;;;;4.03;3.57;;;;;;;;;;5098677;28;20745;-65
2021/08/04 14:10:48;;;;;;;4.00;3.27;;;;;;;;;;5098110;28;20273;-65
2021/08/04 14:13:16;;;;;;;3.50;3.20;;;;;;;;;;5098836;28;20308;-65
2021/08/04 14:15:43;;;;;;;4.20;3.10;;;;;;;;;;5098856;28;20206;-65
2021/08/04 14:18:13;;;;;;;5.00;3.60;;;;;;;;;;5098539;28;20244;-65
2021/08/04 14:20:41;;;;;;;4.30;3.47;;;;;;;;;;5098694;28;20205;-65
2021/08/04 14:23:09;;;;;;;3.93;3.50;;;;;;;;;;5098464;28;20226;-65
2021/08/04 14:25:37;;;;;;;3.67;3.10;;;;;;;;;;5098861;28;20736;-65
2021/08/04 14:28:07;;;;;;;4.37;3.53;;;;;;;;;;5098576;28;20212;-65
2021/08/04 14:30:35;;;;;;;3.53;3.23;;;;;;;;;;5098336;28;20209;-65
2021/08/04 14:33:03;;;;;;;4.70;3.47;;;;;;;;;;5098248;28;20237;-65
2021/08/04 14:35:32;;;;;;;3.53;3.23;;;;;;;;;;5098066;28;20208;-65
2021/08/04 14:38:01;;;;;;;5.60;4.30;;;;;;;;;;5098119;28;20229;-66
2021/08/04 14:40:29;;;;;;;4.17;3.50;;;;;;;;;;5098363;28;20209;-65
2021/08/04 14:42:56;;;;;;;3.90;3.53;;;;;;;;;;5097981;28;20245;-65
2021/08/04 14:45:24;;;;;;;5.63;4.17;;;;;;;;;;5098639;28;20293;-65
2021/08/04 14:47:52;;;;;;;5.27;4.30;;;;;;;;;;5098276;28;20205;-65
2021/08/04 14:50:21;;;;;;;5.07;4.20;;;;;;;;;;5098078;28;20212;-65
2021/08/04 14:52:50;;;;;;;5.10;3.53;;;;;;;;;;5097991;28;20221;-65
2021/08/04 14:55:18;;;;;;;4.87;4.33;;;;;;;;;;5098246;28;20205;-65